sensor_id;sensor_type;location;lat;lon;timestamp;pressure;altitude;pressure_sealevel;temperature;humidity
63306;BME280;50735;52.060;1.248;2023-09-19T00:00:56;100385.63;;;10.75;55.43
63306;BME280;50735;52.060;1.248;2023-09-19T00:03:28;100384.02;;;10.44;55.52
63306;BME280;50735;52.060;1.248;2023-09-19T00:06:00;100386.02;;;10.28;55.97
63306;BME280;50735;52.060;1.248;2023-09-19T00:08:32;100386.53;;;10.22;56.32
63306;BME280;50735;52.060;1.248;2023-09-19T00:11:04;100387.79;;;10.44;56.39
63306;BME280;50735;52.060;1.248;2023-09-19T00:13:35;100386.33;;;10.13;56.24
63306;BME280;50735;52.060;1.248;2023-09-19T00:16:08;100387.54;;;10.16;56.62
63306;BME280;50735;52.060;1.248;2023-09-19T00:18:40;100392.69;;;10.31;56.18
63306;BME280;50735;52.060;1.248;2023-09-19T00:21:12;100395.59;;;10.54;56.31
63306;BME280;50735;52.060;1.248;2023-09-19T00:23:44;100394.96;;;10.56;56.34
63306;BME280;50735;52.060;1.248;2023-09-19T00:26:16;100390.97;;;10.51;56.58
63306;BME280;50735;52.060;1.248;2023-09-19T00:28:48;100391.19;;;10.27;56.53
63306;BME280;50735;52.060;1.248;2023-09-19T00:31:19;100393.71;;;10.32;56.43
63306;BME280;50735;52.060;1.248;2023-09-19T00:33:51;100393.78;;;10.37;56.46
63306;BME280;50735;52.060;1.248;2023-09-19T00:36:23;100394.03;;;10.61;56.36
63306;BME280;50735;52.060;1.248;2023-09-19T00:38:55;100394.49;;;10.37;56.54
63306;BME280;50735;52.060;1.248;2023-09-19T00:41:27;100396.82;;;10.38;56.60
63306;BME280;50735;52.060;1.248;2023-09-19T00:43:58;100398.45;;;10.23;56.45
63306;BME280;50735;52.060;1.248;2023-09-19T00:46:31;100397.04;;;10.69;56.20
63306;BME280;50735;52.060;1.248;2023-09-19T00:49:03;100395.73;;;10.64;56.47
63306;BME280;50735;52.060;1.248;2023-09-19T00:51:35;100403.00;;;10.44;56.44
63306;BME280;50735;52.060;1.248;2023-09-19T00:54:08;100410.37;;;10.32;56.68
63306;BME280;50735;52.060;1.248;2023-09-19T00:56:40;100409.68;;;10.39;57.07
63306;BME280;50735;52.060;1.248;2023-09-19T00:59:12;100411.73;;;10.13;57.18
63306;BME280;50735;52.060;1.248;2023-09-19T01:01:43;100411.79;;;9.95;57.11
63306;BME280;50735;52.060;1.248;2023-09-19T01:04:15;100413.49;;;10.07;57.44
63306;BME280;50735;52.060;1.248;2023-09-19T01:06:47;100424.32;;;10.30;57.37
63306;BME280;50735;52.060;1.248;2023-09-19T01:09:19;100418.89;;;10.38;57.27
63306;BME280;50735;52.060;1.248;2023-09-19T01:11:53;100422.33;;;10.07;57.38
63306;BME280;50735;52.060;1.248;2023-09-19T01:14:34;100428.54;;;10.09;57.73
63306;BME280;50735;52.060;1.248;2023-09-19T01:17:14;100430.20;;;10.30;57.76
63306;BME280;50735;52.060;1.248;2023-09-19T01:20:11;100432.08;;;10.27;57.92
63306;BME280;50735;52.060;1.248;2023-09-19T01:22:57;100432.05;;;10.05;58.32
63306;BME280;50735;52.060;1.248;2023-09-19T01:26:54;100435.50;;;10.05;59.20
63306;BME280;50735;52.060;1.248;2023-09-19T01:29:36;100447.01;;;9.92;60.14
63306;BME280;50735;52.060;1.248;2023-09-19T01:32:11;100438.57;;;9.90;59.53
63306;BME280;50735;52.060;1.248;2023-09-19T01:34:46;100435.96;;;9.93;59.76
63306;BME280;50735;52.060;1.248;2023-09-19T01:37:21;100442.95;;;10.24;59.64
63306;BME280;50735;52.060;1.248;2023-09-19T01:39:56;100444.32;;;10.14;60.13
63306;BME280;50735;52.060;1.248;2023-09-19T01:42:36;100440.55;;;9.90;60.43
63306;BME280;50735;52.060;1.248;2023-09-19T01:45:12;100440.45;;;10.15;60.44
63306;BME280;50735;52.060;1.248;2023-09-19T01:47:49;100435.40;;;10.11;60.79
63306;BME280;50735;52.060;1.248;2023-09-19T01:50:29;100427.74;;;9.93;60.63
63306;BME280;50735;52.060;1.248;2023-09-19T01:53:06;100418.62;;;10.20;60.71
63306;BME280;50735;52.060;1.248;2023-09-19T01:55:46;100423.30;;;10.26;60.44
63306;BME280;50735;52.060;1.248;2023-09-19T01:58:23;100417.87;;;10.22;60.52
63306;BME280;50735;52.060;1.248;2023-09-19T02:01:00;100427.76;;;10.11;60.88
63306;BME280;50735;52.060;1.248;2023-09-19T02:03:33;100421.88;;;10.06;61.10
63306;BME280;50735;52.060;1.248;2023-09-19T02:06:06;100424.01;;;10.17;60.93
63306;BME280;50735;52.060;1.248;2023-09-19T02:08:39;100420.05;;;10.11;61.04
63306;BME280;50735;52.060;1.248;2023-09-19T02:11:11;100421.33;;;10.09;61.11
63306;BME280;50735;52.060;1.248;2023-09-19T02:13:43;100423.30;;;9.93;61.57
63306;BME280;50735;52.060;1.248;2023-09-19T02:16:16;100422.59;;;9.88;61.96
63306;BME280;50735;52.060;1.248;2023-09-19T02:18:48;100418.87;;;9.99;61.59
63306;BME280;50735;52.060;1.248;2023-09-19T02:21:20;100417.30;;;10.03;61.48
63306;BME280;50735;52.060;1.248;2023-09-19T02:23:52;100419.25;;;10.05;61.51
63306;BME280;50735;52.060;1.248;2023-09-19T02:26:23;100419.41;;;9.99;61.68
63306;BME280;50735;52.060;1.248;2023-09-19T02:28:55;100421.65;;;10.07;61.57
63306;BME280;50735;52.060;1.248;2023-09-19T02:31:27;100423.73;;;10.10;61.64
63306;BME280;50735;52.060;1.248;2023-09-19T02:33:59;100422.70;;;9.82;61.74
63306;BME280;50735;52.060;1.248;2023-09-19T02:36:31;100425.41;;;10.07;61.63
63306;BME280;50735;52.060;1.248;2023-09-19T02:39:03;100430.66;;;10.01;62.12
63306;BME280;50735;52.060;1.248;2023-09-19T02:41:34;100448.96;;;9.86;62.54
63306;BME280;50735;52.060;1.248;2023-09-19T02:44:07;100449.16;;;9.71;63.04
63306;BME280;50735;52.060;1.248;2023-09-19T02:46:39;100441.68;;;9.79;63.03
63306;BME280;50735;52.060;1.248;2023-09-19T02:49:11;100430.34;;;9.83;62.99
63306;BME280;50735;52.060;1.248;2023-09-19T02:51:43;100425.63;;;9.94;62.63
63306;BME280;50735;52.060;1.248;2023-09-19T02:54:15;100426.66;;;9.96;62.67
63306;BME280;50735;52.060;1.248;2023-09-19T02:56:47;100429.88;;;9.86;62.44
63306;BME280;50735;52.060;1.248;2023-09-19T02:59:18;100426.41;;;10.08;62.25
63306;BME280;50735;52.060;1.248;2023-09-19T03:01:50;100427.66;;;10.22;62.61
63306;BME280;50735;52.060;1.248;2023-09-19T03:04:22;100431.58;;;10.18;62.18
63306;BME280;50735;52.060;1.248;2023-09-19T03:06:54;100437.62;;;9.94;62.46
63306;BME280;50735;52.060;1.248;2023-09-19T03:09:26;100444.82;;;9.85;62.67
63306;BME280;50735;52.060;1.248;2023-09-19T03:11:58;100453.54;;;10.18;62.88
63306;BME280;50735;52.060;1.248;2023-09-19T03:14:29;100450.35;;;10.00;63.02
63306;BME280;50735;52.060;1.248;2023-09-19T03:17:01;100446.71;;;10.04;62.85
63306;BME280;50735;52.060;1.248;2023-09-19T03:19:33;100444.85;;;10.13;62.71
63306;BME280;50735;52.060;1.248;2023-09-19T03:22:05;100441.63;;;10.07;62.75
63306;BME280;50735;52.060;1.248;2023-09-19T03:24:37;100437.86;;;10.12;62.81
63306;BME280;50735;52.060;1.248;2023-09-19T03:27:09;100438.89;;;10.25;62.38
63306;BME280;50735;52.060;1.248;2023-09-19T03:29:40;100435.65;;;10.18;62.40
63306;BME280;50735;52.060;1.248;2023-09-19T03:32:12;100439.77;;;10.09;62.84
63306;BME280;50735;52.060;1.248;2023-09-19T03:34:44;100442.72;;;10.14;62.62
63306;BME280;50735;52.060;1.248;2023-09-19T03:37:16;100441.87;;;10.18;62.44
63306;BME280;50735;52.060;1.248;2023-09-19T03:39:48;100448.73;;;10.18;62.43
63306;BME280;50735;52.060;1.248;2023-09-19T03:42:20;100454.79;;;10.21;62.27
63306;BME280;50735;52.060;1.248;2023-09-19T03:44:52;100450.87;;;10.00;62.46
63306;BME280;50735;52.060;1.248;2023-09-19T03:47:24;100452.83;;;10.18;62.41
63306;BME280;50735;52.060;1.248;2023-09-19T03:49:55;100455.07;;;10.26;62.23
63306;BME280;50735;52.060;1.248;2023-09-19T03:52:27;100455.67;;;10.28;62.19
63306;BME280;50735;52.060;1.248;2023-09-19T03:54:59;100455.93;;;10.05;62.04
63306;BME280;50735;52.060;1.248;2023-09-19T03:57:31;100453.24;;;10.29;62.13
63306;BME280;50735;52.060;1.248;2023-09-19T04:00:04;100446.54;;;10.39;61.84
63306;BME280;50735;52.060;1.248;2023-09-19T04:02:36;100442.67;;;10.31;62.14
63306;BME280;50735;52.060;1.248;2023-09-19T04:05:08;100446.25;;;10.30;62.20
63306;BME280;50735;52.060;1.248;2023-09-19T04:07:39;100443.60;;;10.19;62.29
63306;BME280;50735;52.060;1.248;2023-09-19T04:10:11;100435.77;;;10.17;62.28
63306;BME280;50735;52.060;1.248;2023-09-19T04:12:51;100420.21;;;10.14;62.68
63306;BME280;50735;52.060;1.248;2023-09-19T04:15:23;100418.47;;;10.06;62.59
63306;BME280;50735;52.060;1.248;2023-09-19T04:17:55;100415.37;;;9.96;63.21
63306;BME280;50735;52.060;1.248;2023-09-19T04:20:27;100417.28;;;10.03;62.78
63306;BME280;50735;52.060;1.248;2023-09-19T04:22:59;100417.09;;;10.05;62.63
63306;BME280;50735;52.060;1.248;2023-09-19T04:25:31;100419.70;;;10.06;62.79
63306;BME280;50735;52.060;1.248;2023-09-19T04:28:03;100416.26;;;9.83;63.37
63306;BME280;50735;52.060;1.248;2023-09-19T04:30:35;100404.14;;;9.90;63.04
63306;BME280;50735;52.060;1.248;2023-09-19T04:33:07;100401.80;;;9.96;62.92
63306;BME280;50735;52.060;1.248;2023-09-19T04:35:39;100399.36;;;9.88;63.24
63306;BME280;50735;52.060;1.248;2023-09-19T04:38:11;100411.56;;;9.88;63.09
63306;BME280;50735;52.060;1.248;2023-09-19T04:40:43;100412.55;;;9.86;63.08
63306;BME280;50735;52.060;1.248;2023-09-19T04:43:15;100411.65;;;9.94;62.82
63306;BME280;50735;52.060;1.248;2023-09-19T04:45:47;100403.23;;;9.91;62.86
63306;BME280;50735;52.060;1.248;2023-09-19T04:48:20;100409.57;;;9.85;62.77
63306;BME280;50735;52.060;1.248;2023-09-19T04:50:52;100412.93;;;9.90;62.80
63306;BME280;50735;52.060;1.248;2023-09-19T04:53:23;100409.21;;;9.97;62.69
63306;BME280;50735;52.060;1.248;2023-09-19T04:55:55;100414.33;;;9.98;62.41
63306;BME280;50735;52.060;1.248;2023-09-19T04:58:26;100408.04;;;9.85;62.78
63306;BME280;50735;52.060;1.248;2023-09-19T05:00:58;100405.49;;;9.88;62.92
63306;BME280;50735;52.060;1.248;2023-09-19T05:03:30;100403.51;;;9.81;63.00
63306;BME280;50735;52.060;1.248;2023-09-19T05:06:01;100395.68;;;9.72;63.28
63306;BME280;50735;52.060;1.248;2023-09-19T05:08:33;100387.53;;;9.94;63.21
63306;BME280;50735;52.060;1.248;2023-09-19T05:11:05;100383.03;;;9.57;63.09
63306;BME280;50735;52.060;1.248;2023-09-19T05:13:36;100386.86;;;9.95;63.39
63306;BME280;50735;52.060;1.248;2023-09-19T05:16:08;100385.70;;;9.80;63.27
63306;BME280;50735;52.060;1.248;2023-09-19T05:18:40;100385.47;;;9.91;62.93
63306;BME280;50735;52.060;1.248;2023-09-19T05:21:11;100388.05;;;9.95;62.95
63306;BME280;50735;52.060;1.248;2023-09-19T05:23:43;100381.27;;;10.04;62.50
63306;BME280;50735;52.060;1.248;2023-09-19T05:26:15;100378.10;;;9.97;62.54
63306;BME280;50735;52.060;1.248;2023-09-19T05:28:46;100385.41;;;9.99;62.53
63306;BME280;50735;52.060;1.248;2023-09-19T05:31:18;100393.16;;;10.06;62.24
63306;BME280;50735;52.060;1.248;2023-09-19T05:33:50;100377.13;;;10.04;62.24
63306;BME280;50735;52.060;1.248;2023-09-19T05:36:22;100366.56;;;9.98;62.38
63306;BME280;50735;52.060;1.248;2023-09-19T05:38:53;100368.96;;;9.89;62.59
63306;BME280;50735;52.060;1.248;2023-09-19T05:41:25;100368.04;;;9.93;62.71
63306;BME280;50735;52.060;1.248;2023-09-19T05:43:57;100366.14;;;9.81;62.77
63306;BME280;50735;52.060;1.248;2023-09-19T05:46:29;100353.12;;;9.85;62.87
63306;BME280;50735;52.060;1.248;2023-09-19T05:49:01;100350.01;;;9.90;62.74
63306;BME280;50735;52.060;1.248;2023-09-19T05:51:33;100347.09;;;10.09;62.67
63306;BME280;50735;52.060;1.248;2023-09-19T05:54:05;100341.03;;;9.96;62.81
63306;BME280;50735;52.060;1.248;2023-09-19T05:56:37;100347.57;;;9.83;62.95
63306;BME280;50735;52.060;1.248;2023-09-19T05:59:09;100338.49;;;9.99;62.51
63306;BME280;50735;52.060;1.248;2023-09-19T06:01:41;100339.88;;;10.05;62.43
63306;BME280;50735;52.060;1.248;2023-09-19T06:04:12;100335.02;;;10.17;62.34
63306;BME280;50735;52.060;1.248;2023-09-19T06:06:44;100334.75;;;10.17;62.45
63306;BME280;50735;52.060;1.248;2023-09-19T06:09:16;100344.61;;;10.18;62.54
63306;BME280;50735;52.060;1.248;2023-09-19T06:11:48;100346.74;;;10.18;62.68
63306;BME280;50735;52.060;1.248;2023-09-19T06:14:19;100330.99;;;10.17;62.98
63306;BME280;50735;52.060;1.248;2023-09-19T06:16:51;100333.73;;;9.99;63.22
63306;BME280;50735;52.060;1.248;2023-09-19T06:19:23;100339.94;;;10.06;63.12
63306;BME280;50735;52.060;1.248;2023-09-19T06:21:55;100337.82;;;10.22;63.40
63306;BME280;50735;52.060;1.248;2023-09-19T06:24:27;100329.64;;;10.45;62.98
63306;BME280;50735;52.060;1.248;2023-09-19T06:26:59;100322.88;;;10.50;62.99
63306;BME280;50735;52.060;1.248;2023-09-19T06:29:30;100321.29;;;10.59;63.08
63306;BME280;50735;52.060;1.248;2023-09-19T06:32:02;100329.19;;;10.48;62.89
63306;BME280;50735;52.060;1.248;2023-09-19T06:34:38;100328.66;;;10.39;63.27
63306;BME280;50735;52.060;1.248;2023-09-19T06:37:10;100335.83;;;10.37;63.53
63306;BME280;50735;52.060;1.248;2023-09-19T06:39:42;100331.36;;;10.51;63.29
63306;BME280;50735;52.060;1.248;2023-09-19T06:42:13;100333.81;;;10.62;63.08
63306;BME280;50735;52.060;1.248;2023-09-19T06:44:46;100334.83;;;10.63;63.46
63306;BME280;50735;52.060;1.248;2023-09-19T06:47:17;100328.99;;;10.47;63.82
63306;BME280;50735;52.060;1.248;2023-09-19T06:49:49;100322.14;;;10.83;63.75
63306;BME280;50735;52.060;1.248;2023-09-19T06:52:21;100316.30;;;10.53;64.21
63306;BME280;50735;52.060;1.248;2023-09-19T06:54:53;100309.32;;;10.57;64.40
63306;BME280;50735;52.060;1.248;2023-09-19T06:57:25;100308.23;;;10.79;64.13
63306;BME280;50735;52.060;1.248;2023-09-19T06:59:57;100308.45;;;11.06;64.48
63306;BME280;50735;52.060;1.248;2023-09-19T07:02:29;100299.96;;;10.96;64.28
63306;BME280;50735;52.060;1.248;2023-09-19T07:05:00;100286.59;;;10.99;64.41
63306;BME280;50735;52.060;1.248;2023-09-19T07:07:32;100291.58;;;11.05;64.53
63306;BME280;50735;52.060;1.248;2023-09-19T07:10:05;100304.47;;;11.03;64.79
63306;BME280;50735;52.060;1.248;2023-09-19T07:12:37;100274.74;;;11.03;64.66
63306;BME280;50735;52.060;1.248;2023-09-19T07:15:09;100276.17;;;11.03;64.85
63306;BME280;50735;52.060;1.248;2023-09-19T07:17:40;100272.34;;;11.15;64.70
63306;BME280;50735;52.060;1.248;2023-09-19T07:20:12;100264.11;;;11.32;65.11
63306;BME280;50735;52.060;1.248;2023-09-19T07:22:44;100259.82;;;11.50;64.94
63306;BME280;50735;52.060;1.248;2023-09-19T07:25:16;100251.72;;;11.56;64.90
63306;BME280;50735;52.060;1.248;2023-09-19T07:27:48;100255.16;;;11.76;64.46
63306;BME280;50735;52.060;1.248;2023-09-19T07:30:20;100250.41;;;11.59;64.65
63306;BME280;50735;52.060;1.248;2023-09-19T07:32:52;100254.31;;;11.57;64.70
63306;BME280;50735;52.060;1.248;2023-09-19T07:35:23;100249.09;;;11.81;64.46
63306;BME280;50735;52.060;1.248;2023-09-19T07:37:55;100240.35;;;11.61;64.82
63306;BME280;50735;52.060;1.248;2023-09-19T07:40:27;100240.85;;;11.32;64.68
63306;BME280;50735;52.060;1.248;2023-09-19T07:42:59;100244.47;;;11.38;64.52
63306;BME280;50735;52.060;1.248;2023-09-19T07:45:32;100247.98;;;11.83;64.62
63306;BME280;50735;52.060;1.248;2023-09-19T07:48:04;100242.96;;;11.98;64.42
63306;BME280;50735;52.060;1.248;2023-09-19T07:50:36;100238.29;;;11.68;64.22
63306;BME280;50735;52.060;1.248;2023-09-19T07:53:08;100247.28;;;12.08;64.33
63306;BME280;50735;52.060;1.248;2023-09-19T07:55:40;100231.92;;;12.07;64.21
63306;BME280;50735;52.060;1.248;2023-09-19T07:58:11;100240.01;;;12.40;64.21
63306;BME280;50735;52.060;1.248;2023-09-19T08:00:43;100234.35;;;12.26;63.31
63306;BME280;50735;52.060;1.248;2023-09-19T08:03:15;100235.13;;;12.25;63.59
63306;BME280;50735;52.060;1.248;2023-09-19T08:05:47;100237.36;;;12.33;63.43
63306;BME280;50735;52.060;1.248;2023-09-19T08:08:18;100218.67;;;12.68;62.92
63306;BME280;50735;52.060;1.248;2023-09-19T08:10:53;100229.95;;;12.93;62.27
63306;BME280;50735;52.060;1.248;2023-09-19T08:13:25;100231.19;;;13.12;61.60
63306;BME280;50735;52.060;1.248;2023-09-19T08:15:57;100230.39;;;13.01;61.83
63306;BME280;50735;52.060;1.248;2023-09-19T08:18:29;100237.93;;;12.97;61.68
63306;BME280;50735;52.060;1.248;2023-09-19T08:21:01;100227.62;;;13.14;61.63
63306;BME280;50735;52.060;1.248;2023-09-19T08:23:32;100220.46;;;12.79;61.85
63306;BME280;50735;52.060;1.248;2023-09-19T08:26:04;100216.69;;;12.85;62.15
63306;BME280;50735;52.060;1.248;2023-09-19T08:28:36;100219.30;;;13.25;61.99
63306;BME280;50735;52.060;1.248;2023-09-19T08:31:09;100203.10;;;13.30;61.48
63306;BME280;50735;52.060;1.248;2023-09-19T08:33:40;100220.09;;;13.31;61.88
63306;BME280;50735;52.060;1.248;2023-09-19T08:36:12;100192.13;;;13.19;61.77
63306;BME280;50735;52.060;1.248;2023-09-19T08:38:44;100195.54;;;13.19;61.75
63306;BME280;50735;52.060;1.248;2023-09-19T08:41:17;100201.77;;;12.94;61.91
63306;BME280;50735;52.060;1.248;2023-09-19T08:43:49;100183.84;;;13.12;62.24
63306;BME280;50735;52.060;1.248;2023-09-19T08:46:23;100188.66;;;12.94;62.46
63306;BME280;50735;52.060;1.248;2023-09-19T08:49:03;100184.18;;;13.30;62.34
63306;BME280;50735;52.060;1.248;2023-09-19T08:51:42;100190.89;;;13.26;62.50
63306;BME280;50735;52.060;1.248;2023-09-19T08:54:21;100186.41;;;13.41;62.53
63306;BME280;50735;52.060;1.248;2023-09-19T08:56:54;100183.73;;;13.24;62.51
63306;BME280;50735;52.060;1.248;2023-09-19T08:59:28;100190.13;;;13.52;62.49
63306;BME280;50735;52.060;1.248;2023-09-19T09:02:01;100197.94;;;13.28;62.44
63306;BME280;50735;52.060;1.248;2023-09-19T09:04:34;100182.63;;;13.47;62.89
63306;BME280;50735;52.060;1.248;2023-09-19T09:07:10;100179.39;;;13.14;63.01
63306;BME280;50735;52.060;1.248;2023-09-19T09:09:42;100168.88;;;13.30;62.97
63306;BME280;50735;52.060;1.248;2023-09-19T09:12:14;100173.51;;;13.14;62.98
63306;BME280;50735;52.060;1.248;2023-09-19T09:14:46;100181.54;;;13.18;63.03
63306;BME280;50735;52.060;1.248;2023-09-19T09:17:19;100171.57;;;13.44;62.77
63306;BME280;50735;52.060;1.248;2023-09-19T09:19:52;100180.57;;;13.56;63.05
63306;BME280;50735;52.060;1.248;2023-09-19T09:22:24;100179.25;;;13.42;63.14
63306;BME280;50735;52.060;1.248;2023-09-19T09:24:57;100170.16;;;13.34;63.54
63306;BME280;50735;52.060;1.248;2023-09-19T09:27:29;100164.07;;;13.54;63.26
63306;BME280;50735;52.060;1.248;2023-09-19T09:30:01;100163.07;;;13.21;63.51
63306;BME280;50735;52.060;1.248;2023-09-19T09:32:33;100156.98;;;13.39;63.68
63306;BME280;50735;52.060;1.248;2023-09-19T09:35:07;100164.79;;;13.03;63.00
63306;BME280;50735;52.060;1.248;2023-09-19T09:37:43;100180.50;;;13.37;63.40
63306;BME280;50735;52.060;1.248;2023-09-19T09:40:15;100163.55;;;13.25;63.07
63306;BME280;50735;52.060;1.248;2023-09-19T09:42:46;100167.17;;;13.62;62.50
63306;BME280;50735;52.060;1.248;2023-09-19T09:45:20;100168.33;;;13.59;61.81
63306;BME280;50735;52.060;1.248;2023-09-19T09:47:52;100146.83;;;13.46;61.55
63306;BME280;50735;52.060;1.248;2023-09-19T09:50:27;100144.36;;;13.80;60.67
63306;BME280;50735;52.060;1.248;2023-09-19T09:52:59;100163.43;;;14.12;60.51
63306;BME280;50735;52.060;1.248;2023-09-19T09:55:57;100127.01;;;13.64;60.39
63306;BME280;50735;52.060;1.248;2023-09-19T09:58:29;100129.49;;;13.98;59.92
63306;BME280;50735;52.060;1.248;2023-09-19T10:01:01;100125.57;;;13.99;60.23
63306;BME280;50735;52.060;1.248;2023-09-19T10:03:35;100119.80;;;14.15;60.18
63306;BME280;50735;52.060;1.248;2023-09-19T10:06:07;100119.44;;;14.25;59.85
63306;BME280;50735;52.060;1.248;2023-09-19T10:08:57;100110.37;;;14.19;60.12
63306;BME280;50735;52.060;1.248;2023-09-19T10:11:29;100107.40;;;14.34;59.48
63306;BME280;50735;52.060;1.248;2023-09-19T10:14:02;100123.61;;;14.10;59.70
63306;BME280;50735;52.060;1.248;2023-09-19T10:16:35;100098.58;;;14.21;60.19
63306;BME280;50735;52.060;1.248;2023-09-19T10:19:10;100106.26;;;14.06;60.18
63306;BME280;50735;52.060;1.248;2023-09-19T10:21:43;100122.28;;;14.32;59.79
63306;BME280;50735;52.060;1.248;2023-09-19T10:24:15;100102.61;;;14.21;59.38
63306;BME280;50735;52.060;1.248;2023-09-19T10:26:48;100110.54;;;13.92;59.55
63306;BME280;50735;52.060;1.248;2023-09-19T10:29:21;100102.57;;;14.27;59.14
63306;BME280;50735;52.060;1.248;2023-09-19T10:31:54;100108.25;;;14.12;59.57
63306;BME280;50735;52.060;1.248;2023-09-19T10:34:26;100112.65;;;14.04;59.68
63306;BME280;50735;52.060;1.248;2023-09-19T10:37:00;100107.50;;;13.99;59.57
63306;BME280;50735;52.060;1.248;2023-09-19T10:39:33;100103.47;;;14.10;59.48
63306;BME280;50735;52.060;1.248;2023-09-19T10:42:06;100096.92;;;14.22;59.51
63306;BME280;50735;52.060;1.248;2023-09-19T10:44:41;100098.60;;;14.15;59.62
63306;BME280;50735;52.060;1.248;2023-09-19T10:47:14;100095.53;;;14.23;58.99
63306;BME280;50735;52.060;1.248;2023-09-19T10:49:46;100088.70;;;14.20;59.02
63306;BME280;50735;52.060;1.248;2023-09-19T10:52:21;100100.91;;;14.02;58.99
63306;BME280;50735;52.060;1.248;2023-09-19T10:54:56;100089.37;;;14.24;58.98
63306;BME280;50735;52.060;1.248;2023-09-19T10:57:29;100088.76;;;14.56;58.60
63306;BME280;50735;52.060;1.248;2023-09-19T11:00:03;100100.27;;;14.56;58.68
63306;BME280;50735;52.060;1.248;2023-09-19T11:02:35;100078.45;;;14.50;58.55
63306;BME280;50735;52.060;1.248;2023-09-19T11:05:11;100083.99;;;14.71;58.53
63306;BME280;50735;52.060;1.248;2023-09-19T11:07:57;100076.20;;;14.51;57.83
63306;BME280;50735;52.060;1.248;2023-09-19T11:10:45;100094.69;;;14.62;57.46
63306;BME280;50735;52.060;1.248;2023-09-19T11:13:25;100096.71;;;15.17;57.48
63306;BME280;50735;52.060;1.248;2023-09-19T11:16:05;100090.95;;;15.01;57.40
63306;BME280;50735;52.060;1.248;2023-09-19T11:18:51;100094.02;;;14.74;57.51
63306;BME280;50735;52.060;1.248;2023-09-19T11:21:40;100091.93;;;14.67;57.24
63306;BME280;50735;52.060;1.248;2023-09-19T11:24:29;100091.50;;;14.89;56.89
63306;BME280;50735;52.060;1.248;2023-09-19T11:27:12;100074.53;;;15.11;56.25
63306;BME280;50735;52.060;1.248;2023-09-19T11:29:44;100073.52;;;15.24;56.80
63306;BME280;50735;52.060;1.248;2023-09-19T11:32:16;100072.98;;;15.08;56.30
63306;BME280;50735;52.060;1.248;2023-09-19T11:34:48;100072.56;;;14.98;56.67
63306;BME280;50735;52.060;1.248;2023-09-19T11:37:59;100062.70;;;15.01;56.47
63306;BME280;50735;52.060;1.248;2023-09-19T11:40:31;100060.93;;;15.27;56.82
63306;BME280;50735;52.060;1.248;2023-09-19T11:43:35;100072.91;;;15.13;56.45
63306;BME280;50735;52.060;1.248;2023-09-19T11:46:07;100069.77;;;14.89;56.58
63306;BME280;50735;52.060;1.248;2023-09-19T11:48:39;100075.13;;;15.03;56.91
63306;BME280;50735;52.060;1.248;2023-09-19T11:51:13;100077.43;;;14.91;56.49
63306;BME280;50735;52.060;1.248;2023-09-19T11:53:46;100078.66;;;15.42;56.83
63306;BME280;50735;52.060;1.248;2023-09-19T11:56:19;100077.89;;;15.01;56.77
63306;BME280;50735;52.060;1.248;2023-09-19T11:58:52;100086.72;;;15.06;57.67
63306;BME280;50735;52.060;1.248;2023-09-19T12:01:25;100070.75;;;15.10;57.21
63306;BME280;50735;52.060;1.248;2023-09-19T12:03:59;100081.49;;;15.04;57.16
63306;BME280;50735;52.060;1.248;2023-09-19T12:06:31;100087.08;;;15.08;57.04
63306;BME280;50735;52.060;1.248;2023-09-19T12:09:04;100082.68;;;15.08;56.70
63306;BME280;50735;52.060;1.248;2023-09-19T12:11:41;100071.79;;;15.07;56.63
63306;BME280;50735;52.060;1.248;2023-09-19T12:14:22;100085.44;;;15.33;56.70
63306;BME280;50735;52.060;1.248;2023-09-19T12:16:54;100095.02;;;15.40;56.91
63306;BME280;50735;52.060;1.248;2023-09-19T12:19:26;100084.66;;;15.25;57.21
63306;BME280;50735;52.060;1.248;2023-09-19T12:21:59;100076.24;;;15.02;57.17
63306;BME280;50735;52.060;1.248;2023-09-19T12:24:32;100073.40;;;15.54;56.85
63306;BME280;50735;52.060;1.248;2023-09-19T12:27:05;100077.63;;;15.72;56.42
63306;BME280;50735;52.060;1.248;2023-09-19T12:29:46;100076.06;;;15.49;56.51
63306;BME280;50735;52.060;1.248;2023-09-19T12:32:18;100073.06;;;15.55;56.52
63306;BME280;50735;52.060;1.248;2023-09-19T12:35:06;100071.29;;;15.86;56.47
63306;BME280;50735;52.060;1.248;2023-09-19T12:37:42;100077.93;;;15.33;56.40
63306;BME280;50735;52.060;1.248;2023-09-19T12:40:14;100082.95;;;15.44;56.80
63306;BME280;50735;52.060;1.248;2023-09-19T12:42:46;100075.26;;;15.72;57.01
63306;BME280;50735;52.060;1.248;2023-09-19T12:45:19;100086.81;;;15.38;56.96
63306;BME280;50735;52.060;1.248;2023-09-19T12:48:24;100088.43;;;15.56;56.76
63306;BME280;50735;52.060;1.248;2023-09-19T12:51:01;100080.13;;;15.46;56.71
63306;BME280;50735;52.060;1.248;2023-09-19T12:53:34;100074.49;;;15.63;57.01
63306;BME280;50735;52.060;1.248;2023-09-19T12:56:06;100073.00;;;15.56;57.15
63306;BME280;50735;52.060;1.248;2023-09-19T12:58:56;100082.62;;;15.53;56.91
63306;BME280;50735;52.060;1.248;2023-09-19T13:01:28;100091.22;;;15.66;57.39
63306;BME280;50735;52.060;1.248;2023-09-19T13:04:16;100086.20;;;15.63;57.58
63306;BME280;50735;52.060;1.248;2023-09-19T13:06:50;100091.37;;;15.53;58.00
63306;BME280;50735;52.060;1.248;2023-09-19T13:09:22;100094.04;;;15.22;58.68
63306;BME280;50735;52.060;1.248;2023-09-19T13:11:54;100095.44;;;15.30;59.02
63306;BME280;50735;52.060;1.248;2023-09-19T13:14:27;100090.19;;;15.22;59.28
63306;BME280;50735;52.060;1.248;2023-09-19T13:17:01;100089.80;;;14.89;60.44
63306;BME280;50735;52.060;1.248;2023-09-19T13:19:38;100094.86;;;15.12;60.16
63306;BME280;50735;52.060;1.248;2023-09-19T13:22:43;100105.21;;;14.87;60.09
63306;BME280;50735;52.060;1.248;2023-09-19T13:25:17;100097.03;;;15.17;60.32
63306;BME280;50735;52.060;1.248;2023-09-19T13:27:49;100093.87;;;15.13;60.05